<?xml version="1.0" encoding="UTF-8" standalone="no" ?>
<gpx xmlns="http://www.topografix.com/GPX/1/1" xmlns:xsi="http://www.w3.org/2001/XMLSchema-instance" xsi:schemaLocation="http://www.topografix.com/GPX/1/1 http://www.topografix.com/GPX/1/1/gpx.xsd" version="1.1" creator="VisuGPX - https://www.visugpx.com">
  <metadata>
    <name>Cabanon des Marquis</name>
    <desc><![CDATA[Rando facile,beau point de vue sur le golfe de La Ciotat.]]></desc>
  </metadata>
  <trk>
    <name><![CDATA[Cabanon des Marquis_4]]></name>
    <trkseg>
      <trkpt lat="43.23706" lon="5.59894">
        <ele>402.9</ele>
        <time>2014-10-08T09:03:22Z</time>
      </trkpt>
      <trkpt lat="43.23706" lon="5.59894">
        <ele>402.9</ele>
        <time>2014-10-08T09:03:23Z</time>
      </trkpt>
      <trkpt lat="43.23701" lon="5.59897">
        <ele>399.7</ele>
        <time>2014-10-08T09:04:20Z</time>
      </trkpt>
      <trkpt lat="43.23697" lon="5.59897">
        <ele>402.7</ele>
        <time>2014-10-08T09:05:09Z</time>
      </trkpt>
      <trkpt lat="43.23696" lon="5.59897">
        <ele>402.6</ele>
        <time>2014-10-08T09:05:10Z</time>
      </trkpt>
      <trkpt lat="43.23694" lon="5.59902">
        <ele>409.1</ele>
        <time>2014-10-08T09:06:55Z</time>
      </trkpt>
      <trkpt lat="43.2369" lon="5.59905">
        <ele>421.7</ele>
        <time>2014-10-08T09:08:17Z</time>
      </trkpt>
      <trkpt lat="43.23685" lon="5.59913">
        <ele>421.8</ele>
        <time>2014-10-08T09:08:58Z</time>
      </trkpt>
      <trkpt lat="43.23688" lon="5.5991">
        <ele>422.2</ele>
        <time>2014-10-08T09:09:15Z</time>
      </trkpt>
      <trkpt lat="43.23691" lon="5.59906">
        <ele>406.2</ele>
        <time>2014-10-08T09:09:43Z</time>
      </trkpt>
      <trkpt lat="43.23691" lon="5.59905">
        <ele>405.8</ele>
        <time>2014-10-08T09:09:44Z</time>
      </trkpt>
      <trkpt lat="43.23689" lon="5.59914">
        <ele>406.3</ele>
        <time>2014-10-08T09:10:09Z</time>
      </trkpt>
      <trkpt lat="43.23689" lon="5.5992">
        <ele>424.6</ele>
        <time>2014-10-08T09:10:28Z</time>
      </trkpt>
      <trkpt lat="43.23689" lon="5.59915">
        <ele>419.5</ele>
        <time>2014-10-08T09:10:42Z</time>
      </trkpt>
      <trkpt lat="43.23689" lon="5.59909">
        <ele>427.2</ele>
        <time>2014-10-08T09:11:04Z</time>
      </trkpt>
      <trkpt lat="43.2369" lon="5.59908">
        <ele>425</ele>
        <time>2014-10-08T09:11:05Z</time>
      </trkpt>
      <trkpt lat="43.23689" lon="5.59907">
        <ele>403.6</ele>
        <time>2014-10-08T09:12:04Z</time>
      </trkpt>
      <trkpt lat="43.23689" lon="5.59907">
        <ele>404</ele>
        <time>2014-10-08T09:12:05Z</time>
      </trkpt>
      <trkpt lat="43.23688" lon="5.59918">
        <ele>403.2</ele>
        <time>2014-10-08T09:12:18Z</time>
      </trkpt>
      <trkpt lat="43.23688" lon="5.59924">
        <ele>404.8</ele>
        <time>2014-10-08T09:12:24Z</time>
      </trkpt>
      <trkpt lat="43.23688" lon="5.59929">
        <ele>405.5</ele>
        <time>2014-10-08T09:12:28Z</time>
      </trkpt>
      <trkpt lat="43.23688" lon="5.59935">
        <ele>406.3</ele>
        <time>2014-10-08T09:12:33Z</time>
      </trkpt>
      <trkpt lat="43.23688" lon="5.59941">
        <ele>406</ele>
        <time>2014-10-08T09:12:38Z</time>
      </trkpt>
      <trkpt lat="43.23689" lon="5.59946">
        <ele>405.7</ele>
        <time>2014-10-08T09:12:42Z</time>
      </trkpt>
      <trkpt lat="43.23691" lon="5.59952">
        <ele>406.7</ele>
        <time>2014-10-08T09:12:46Z</time>
      </trkpt>
      <trkpt lat="43.23693" lon="5.59957">
        <ele>406.7</ele>
        <time>2014-10-08T09:12:51Z</time>
      </trkpt>
      <trkpt lat="43.23694" lon="5.59962">
        <ele>408</ele>
        <time>2014-10-08T09:12:55Z</time>
      </trkpt>
      <trkpt lat="43.23696" lon="5.59967">
        <ele>408.2</ele>
        <time>2014-10-08T09:13:00Z</time>
      </trkpt>
      <trkpt lat="43.23697" lon="5.59972">
        <ele>410.7</ele>
        <time>2014-10-08T09:13:04Z</time>
      </trkpt>
      <trkpt lat="43.23697" lon="5.59978">
        <ele>413.5</ele>
        <time>2014-10-08T09:13:08Z</time>
      </trkpt>
      <trkpt lat="43.23697" lon="5.59979">
        <ele>414.2</ele>
        <time>2014-10-08T09:13:09Z</time>
      </trkpt>
      <trkpt lat="43.23699" lon="5.59989">
        <ele>414.8</ele>
        <time>2014-10-08T09:13:17Z</time>
      </trkpt>
      <trkpt lat="43.237" lon="5.59994">
        <ele>414.1</ele>
        <time>2014-10-08T09:13:22Z</time>
      </trkpt>
      <trkpt lat="43.23702" lon="5.59999">
        <ele>413.7</ele>
        <time>2014-10-08T09:13:27Z</time>
      </trkpt>
      <trkpt lat="43.23703" lon="5.60004">
        <ele>412</ele>
        <time>2014-10-08T09:13:31Z</time>
      </trkpt>
      <trkpt lat="43.23704" lon="5.60009">
        <ele>413.5</ele>
        <time>2014-10-08T09:13:35Z</time>
      </trkpt>
      <trkpt lat="43.23707" lon="5.60013">
        <ele>412</ele>
        <time>2014-10-08T09:13:39Z</time>
      </trkpt>
      <trkpt lat="43.23709" lon="5.60017">
        <ele>410.8</ele>
        <time>2014-10-08T09:13:42Z</time>
      </trkpt>
      <trkpt lat="43.23711" lon="5.60022">
        <ele>410.5</ele>
        <time>2014-10-08T09:13:46Z</time>
      </trkpt>
      <trkpt lat="43.23713" lon="5.60027">
        <ele>412.1</ele>
        <time>2014-10-08T09:13:51Z</time>
      </trkpt>
      <trkpt lat="43.23715" lon="5.60032">
        <ele>412.7</ele>
        <time>2014-10-08T09:13:57Z</time>
      </trkpt>
      <trkpt lat="43.23717" lon="5.60036">
        <ele>411.7</ele>
        <time>2014-10-08T09:14:01Z</time>
      </trkpt>
      <trkpt lat="43.2372" lon="5.6004">
        <ele>412</ele>
        <time>2014-10-08T09:14:05Z</time>
      </trkpt>
      <trkpt lat="43.23722" lon="5.60044">
        <ele>412</ele>
        <time>2014-10-08T09:14:09Z</time>
      </trkpt>
      <trkpt lat="43.23723" lon="5.60045">
        <ele>411.7</ele>
        <time>2014-10-08T09:14:10Z</time>
      </trkpt>
      <trkpt lat="43.23727" lon="5.60053">
        <ele>412.5</ele>
        <time>2014-10-08T09:14:17Z</time>
      </trkpt>
      <trkpt lat="43.2373" lon="5.60057">
        <ele>412.1</ele>
        <time>2014-10-08T09:14:21Z</time>
      </trkpt>
      <trkpt lat="43.23732" lon="5.6006">
        <ele>411.5</ele>
        <time>2014-10-08T09:14:25Z</time>
      </trkpt>
      <trkpt lat="43.23733" lon="5.60066">
        <ele>414</ele>
        <time>2014-10-08T09:14:29Z</time>
      </trkpt>
      <trkpt lat="43.23734" lon="5.60072">
        <ele>415.3</ele>
        <time>2014-10-08T09:14:33Z</time>
      </trkpt>
      <trkpt lat="43.23735" lon="5.60078">
        <ele>416.1</ele>
        <time>2014-10-08T09:14:37Z</time>
      </trkpt>
      <trkpt lat="43.23736" lon="5.60083">
        <ele>415.7</ele>
        <time>2014-10-08T09:14:41Z</time>
      </trkpt>
      <trkpt lat="43.23738" lon="5.60088">
        <ele>414.6</ele>
        <time>2014-10-08T09:14:46Z</time>
      </trkpt>
      <trkpt lat="43.23739" lon="5.60093">
        <ele>414.3</ele>
        <time>2014-10-08T09:14:50Z</time>
      </trkpt>
      <trkpt lat="43.2374" lon="5.60098">
        <ele>413.6</ele>
        <time>2014-10-08T09:14:54Z</time>
      </trkpt>
      <trkpt lat="43.23741" lon="5.60103">
        <ele>413.2</ele>
        <time>2014-10-08T09:14:58Z</time>
      </trkpt>
      <trkpt lat="43.23741" lon="5.60109">
        <ele>413</ele>
        <time>2014-10-08T09:15:02Z</time>
      </trkpt>
      <trkpt lat="43.23741" lon="5.60114">
        <ele>413</ele>
        <time>2014-10-08T09:15:06Z</time>
      </trkpt>
      <trkpt lat="43.2374" lon="5.6012">
        <ele>414</ele>
        <time>2014-10-08T09:15:10Z</time>
      </trkpt>
      <trkpt lat="43.23739" lon="5.60122">
        <ele>414.2</ele>
        <time>2014-10-08T09:15:11Z</time>
      </trkpt>
      <trkpt lat="43.23738" lon="5.60132">
        <ele>414.7</ele>
        <time>2014-10-08T09:15:18Z</time>
      </trkpt>
      <trkpt lat="43.23737" lon="5.60136">
        <ele>416.1</ele>
        <time>2014-10-08T09:15:21Z</time>
      </trkpt>
      <trkpt lat="43.23736" lon="5.60141">
        <ele>417.2</ele>
        <time>2014-10-08T09:15:24Z</time>
      </trkpt>
      <trkpt lat="43.23735" lon="5.60146">
        <ele>418.1</ele>
        <time>2014-10-08T09:15:27Z</time>
      </trkpt>
      <trkpt lat="43.23734" lon="5.60151">
        <ele>418.5</ele>
        <time>2014-10-08T09:15:31Z</time>
      </trkpt>
      <trkpt lat="43.23731" lon="5.60156">
        <ele>418</ele>
        <time>2014-10-08T09:15:35Z</time>
      </trkpt>
      <trkpt lat="43.23728" lon="5.6016">
        <ele>417.7</ele>
        <time>2014-10-08T09:15:39Z</time>
      </trkpt>
      <trkpt lat="43.23726" lon="5.60165">
        <ele>417.7</ele>
        <time>2014-10-08T09:15:43Z</time>
      </trkpt>
      <trkpt lat="43.23723" lon="5.60168">
        <ele>418.2</ele>
        <time>2014-10-08T09:15:46Z</time>
      </trkpt>
      <trkpt lat="43.2372" lon="5.60172">
        <ele>418.6</ele>
        <time>2014-10-08T09:15:50Z</time>
      </trkpt>
      <trkpt lat="43.23717" lon="5.60177">
        <ele>419.7</ele>
        <time>2014-10-08T09:15:54Z</time>
      </trkpt>
      <trkpt lat="43.23715" lon="5.6018">
        <ele>420.3</ele>
        <time>2014-10-08T09:15:57Z</time>
      </trkpt>
      <trkpt lat="43.23712" lon="5.60185">
        <ele>421.6</ele>
        <time>2014-10-08T09:16:01Z</time>
      </trkpt>
      <trkpt lat="43.23708" lon="5.60189">
        <ele>422.8</ele>
        <time>2014-10-08T09:16:05Z</time>
      </trkpt>
      <trkpt lat="43.23706" lon="5.60193">
        <ele>422.3</ele>
        <time>2014-10-08T09:16:09Z</time>
      </trkpt>
      <trkpt lat="43.23702" lon="5.60197">
        <ele>422.7</ele>
        <time>2014-10-08T09:16:13Z</time>
      </trkpt>
      <trkpt lat="43.23702" lon="5.60198">
        <ele>422.3</ele>
        <time>2014-10-08T09:16:14Z</time>
      </trkpt>
      <trkpt lat="43.23698" lon="5.60205">
        <ele>423.6</ele>
        <time>2014-10-08T09:16:20Z</time>
      </trkpt>
      <trkpt lat="43.23695" lon="5.60209">
        <ele>423.7</ele>
        <time>2014-10-08T09:16:23Z</time>
      </trkpt>
      <trkpt lat="43.23693" lon="5.60212">
        <ele>422.6</ele>
        <time>2014-10-08T09:16:26Z</time>
      </trkpt>
      <trkpt lat="43.23691" lon="5.60217">
        <ele>422</ele>
        <time>2014-10-08T09:16:29Z</time>
      </trkpt>
      <trkpt lat="43.23689" lon="5.60222">
        <ele>421.2</ele>
        <time>2014-10-08T09:16:33Z</time>
      </trkpt>
      <trkpt lat="43.23686" lon="5.60226">
        <ele>421.1</ele>
        <time>2014-10-08T09:16:37Z</time>
      </trkpt>
      <trkpt lat="43.23684" lon="5.60231">
        <ele>421</ele>
        <time>2014-10-08T09:16:41Z</time>
      </trkpt>
      <trkpt lat="43.23681" lon="5.60234">
        <ele>421.5</ele>
        <time>2014-10-08T09:16:44Z</time>
      </trkpt>
      <trkpt lat="43.23679" lon="5.60239">
        <ele>421.8</ele>
        <time>2014-10-08T09:16:48Z</time>
      </trkpt>
      <trkpt lat="43.23677" lon="5.60244">
        <ele>421.3</ele>
        <time>2014-10-08T09:16:52Z</time>
      </trkpt>
      <trkpt lat="43.23675" lon="5.60248">
        <ele>421.6</ele>
        <time>2014-10-08T09:16:56Z</time>
      </trkpt>
      <trkpt lat="43.23672" lon="5.60252">
        <ele>421.7</ele>
        <time>2014-10-08T09:16:59Z</time>
      </trkpt>
      <trkpt lat="43.2367" lon="5.60256">
        <ele>421.7</ele>
        <time>2014-10-08T09:17:03Z</time>
      </trkpt>
      <trkpt lat="43.23669" lon="5.60262">
        <ele>422.2</ele>
        <time>2014-10-08T09:17:07Z</time>
      </trkpt>
      <trkpt lat="43.23669" lon="5.60267">
        <ele>422.5</ele>
        <time>2014-10-08T09:17:11Z</time>
      </trkpt>
      <trkpt lat="43.23668" lon="5.60273">
        <ele>422.5</ele>
        <time>2014-10-08T09:17:16Z</time>
      </trkpt>
      <trkpt lat="43.23668" lon="5.60274">
        <ele>422.2</ele>
        <time>2014-10-08T09:17:17Z</time>
      </trkpt>
      <trkpt lat="43.23669" lon="5.60285">
        <ele>422.7</ele>
        <time>2014-10-08T09:17:41Z</time>
      </trkpt>
      <trkpt lat="43.23672" lon="5.60287">
        <ele>422.8</ele>
        <time>2014-10-08T09:17:45Z</time>
      </trkpt>
      <trkpt lat="43.23675" lon="5.6029">
        <ele>422.8</ele>
        <time>2014-10-08T09:17:49Z</time>
      </trkpt>
      <trkpt lat="43.23677" lon="5.60293">
        <ele>422.2</ele>
        <time>2014-10-08T09:17:52Z</time>
      </trkpt>
      <trkpt lat="43.23681" lon="5.60296">
        <ele>421.1</ele>
        <time>2014-10-08T09:17:56Z</time>
      </trkpt>
      <trkpt lat="43.23685" lon="5.60298">
        <ele>420.7</ele>
        <time>2014-10-08T09:18:00Z</time>
      </trkpt>
      <trkpt lat="43.23688" lon="5.60301">
        <ele>422</ele>
        <time>2014-10-08T09:18:04Z</time>
      </trkpt>
      <trkpt lat="43.23691" lon="5.60304">
        <ele>421.6</ele>
        <time>2014-10-08T09:18:07Z</time>
      </trkpt>
      <trkpt lat="43.23694" lon="5.60308">
        <ele>421.2</ele>
        <time>2014-10-08T09:18:11Z</time>
      </trkpt>
      <trkpt lat="43.23696" lon="5.60312">
        <ele>421.6</ele>
        <time>2014-10-08T09:18:15Z</time>
      </trkpt>
      <trkpt lat="43.23698" lon="5.60317">
        <ele>421.1</ele>
        <time>2014-10-08T09:18:19Z</time>
      </trkpt>
      <trkpt lat="43.23699" lon="5.60318">
        <ele>420.8</ele>
        <time>2014-10-08T09:18:20Z</time>
      </trkpt>
      <trkpt lat="43.23702" lon="5.60327">
        <ele>420</ele>
        <time>2014-10-08T09:18:27Z</time>
      </trkpt>
      <trkpt lat="43.23702" lon="5.60333">
        <ele>419.5</ele>
        <time>2014-10-08T09:18:31Z</time>
      </trkpt>
      <trkpt lat="43.23704" lon="5.60338">
        <ele>418.7</ele>
        <time>2014-10-08T09:18:35Z</time>
      </trkpt>
      <trkpt lat="43.23705" lon="5.60343">
        <ele>418.1</ele>
        <time>2014-10-08T09:18:39Z</time>
      </trkpt>
      <trkpt lat="43.23706" lon="5.60349">
        <ele>417.2</ele>
        <time>2014-10-08T09:18:43Z</time>
      </trkpt>
      <trkpt lat="43.23708" lon="5.60354">
        <ele>416.3</ele>
        <time>2014-10-08T09:18:47Z</time>
      </trkpt>
      <trkpt lat="43.2371" lon="5.60358">
        <ele>415.6</ele>
        <time>2014-10-08T09:18:51Z</time>
      </trkpt>
      <trkpt lat="43.23711" lon="5.60363">
        <ele>415.2</ele>
        <time>2014-10-08T09:18:55Z</time>
      </trkpt>
      <trkpt lat="43.23713" lon="5.60369">
        <ele>415.2</ele>
        <time>2014-10-08T09:18:59Z</time>
      </trkpt>
      <trkpt lat="43.23715" lon="5.60374">
        <ele>415.5</ele>
        <time>2014-10-08T09:19:03Z</time>
      </trkpt>
      <trkpt lat="43.23716" lon="5.60378">
        <ele>415.2</ele>
        <time>2014-10-08T09:19:07Z</time>
      </trkpt>
      <trkpt lat="43.23717" lon="5.60384">
        <ele>415</ele>
        <time>2014-10-08T09:19:11Z</time>
      </trkpt>
      <trkpt lat="43.23718" lon="5.6039">
        <ele>414.7</ele>
        <time>2014-10-08T09:19:15Z</time>
      </trkpt>
      <trkpt lat="43.23719" lon="5.60396">
        <ele>414.7</ele>
        <time>2014-10-08T09:19:19Z</time>
      </trkpt>
      <trkpt lat="43.2372" lon="5.60401">
        <ele>414.8</ele>
        <time>2014-10-08T09:19:22Z</time>
      </trkpt>
      <trkpt lat="43.2372" lon="5.60402">
        <ele>414.8</ele>
        <time>2014-10-08T09:19:23Z</time>
      </trkpt>
      <trkpt lat="43.23721" lon="5.60411">
        <ele>415.2</ele>
        <time>2014-10-08T09:19:29Z</time>
      </trkpt>
      <trkpt lat="43.23722" lon="5.60416">
        <ele>415.6</ele>
        <time>2014-10-08T09:19:32Z</time>
      </trkpt>
      <trkpt lat="43.23723" lon="5.6042">
        <ele>416.2</ele>
        <time>2014-10-08T09:19:35Z</time>
      </trkpt>
      <trkpt lat="43.23724" lon="5.60425">
        <ele>416.7</ele>
        <time>2014-10-08T09:19:38Z</time>
      </trkpt>
      <trkpt lat="43.23724" lon="5.6043">
        <ele>417.7</ele>
        <time>2014-10-08T09:19:41Z</time>
      </trkpt>
      <trkpt lat="43.23725" lon="5.60435">
        <ele>418.7</ele>
        <time>2014-10-08T09:19:44Z</time>
      </trkpt>
      <trkpt lat="43.23726" lon="5.6044">
        <ele>419.1</ele>
        <time>2014-10-08T09:19:47Z</time>
      </trkpt>
      <trkpt lat="43.23727" lon="5.60444">
        <ele>419.2</ele>
        <time>2014-10-08T09:19:50Z</time>
      </trkpt>
      <trkpt lat="43.23727" lon="5.60449">
        <ele>419.3</ele>
        <time>2014-10-08T09:19:53Z</time>
      </trkpt>
      <trkpt lat="43.23728" lon="5.60453">
        <ele>418.7</ele>
        <time>2014-10-08T09:19:56Z</time>
      </trkpt>
      <trkpt lat="43.2373" lon="5.60458">
        <ele>419</ele>
        <time>2014-10-08T09:19:59Z</time>
      </trkpt>
      <trkpt lat="43.23732" lon="5.60463">
        <ele>419.1</ele>
        <time>2014-10-08T09:20:03Z</time>
      </trkpt>
      <trkpt lat="43.23734" lon="5.60468">
        <ele>419.6</ele>
        <time>2014-10-08T09:20:07Z</time>
      </trkpt>
      <trkpt lat="43.23735" lon="5.60473">
        <ele>419.5</ele>
        <time>2014-10-08T09:20:11Z</time>
      </trkpt>
      <trkpt lat="43.23737" lon="5.60478">
        <ele>419.7</ele>
        <time>2014-10-08T09:20:15Z</time>
      </trkpt>
      <trkpt lat="43.23739" lon="5.60483">
        <ele>419.5</ele>
        <time>2014-10-08T09:20:19Z</time>
      </trkpt>
      <trkpt lat="43.23741" lon="5.60487">
        <ele>419.5</ele>
        <time>2014-10-08T09:20:23Z</time>
      </trkpt>
      <trkpt lat="43.23742" lon="5.60488">
        <ele>419.7</ele>
        <time>2014-10-08T09:20:24Z</time>
      </trkpt>
      <trkpt lat="43.23746" lon="5.60496">
        <ele>420.5</ele>
        <time>2014-10-08T09:20:31Z</time>
      </trkpt>
      <trkpt lat="43.23748" lon="5.60501">
        <ele>420.8</ele>
        <time>2014-10-08T09:20:35Z</time>
      </trkpt>
      <trkpt lat="43.23751" lon="5.60505">
        <ele>421</ele>
        <time>2014-10-08T09:20:40Z</time>
      </trkpt>
      <trkpt lat="43.23753" lon="5.6051">
        <ele>421</ele>
        <time>2014-10-08T09:20:44Z</time>
      </trkpt>
      <trkpt lat="43.23754" lon="5.60515">
        <ele>421.8</ele>
        <time>2014-10-08T09:20:48Z</time>
      </trkpt>
      <trkpt lat="43.23755" lon="5.60521">
        <ele>423.1</ele>
        <time>2014-10-08T09:20:52Z</time>
      </trkpt>
      <trkpt lat="43.23758" lon="5.60525">
        <ele>423.7</ele>
        <time>2014-10-08T09:20:56Z</time>
      </trkpt>
      <trkpt lat="43.23759" lon="5.60529">
        <ele>423.7</ele>
        <time>2014-10-08T09:20:59Z</time>
      </trkpt>
      <trkpt lat="43.23762" lon="5.60533">
        <ele>423.3</ele>
        <time>2014-10-08T09:21:02Z</time>
      </trkpt>
      <trkpt lat="43.23765" lon="5.60537">
        <ele>423</ele>
        <time>2014-10-08T09:21:06Z</time>
      </trkpt>
      <trkpt lat="43.23768" lon="5.6054">
        <ele>422.7</ele>
        <time>2014-10-08T09:21:09Z</time>
      </trkpt>
      <trkpt lat="43.2377" lon="5.60543">
        <ele>422.5</ele>
        <time>2014-10-08T09:21:12Z</time>
      </trkpt>
      <trkpt lat="43.23773" lon="5.60546">
        <ele>421.8</ele>
        <time>2014-10-08T09:21:16Z</time>
      </trkpt>
      <trkpt lat="43.23777" lon="5.60551">
        <ele>421.7</ele>
        <time>2014-10-08T09:21:20Z</time>
      </trkpt>
      <trkpt lat="43.23779" lon="5.60554">
        <ele>421.8</ele>
        <time>2014-10-08T09:21:23Z</time>
      </trkpt>
      <trkpt lat="43.23782" lon="5.60557">
        <ele>422</ele>
        <time>2014-10-08T09:21:26Z</time>
      </trkpt>
      <trkpt lat="43.23783" lon="5.60558">
        <ele>422.1</ele>
        <time>2014-10-08T09:21:27Z</time>
      </trkpt>
      <trkpt lat="43.23787" lon="5.60564">
        <ele>421</ele>
        <time>2014-10-08T09:21:32Z</time>
      </trkpt>
      <trkpt lat="43.2379" lon="5.60567">
        <ele>420.2</ele>
        <time>2014-10-08T09:21:36Z</time>
      </trkpt>
      <trkpt lat="43.23792" lon="5.60572">
        <ele>419.6</ele>
        <time>2014-10-08T09:21:40Z</time>
      </trkpt>
      <trkpt lat="43.23794" lon="5.60578">
        <ele>419.7</ele>
        <time>2014-10-08T09:21:44Z</time>
      </trkpt>
      <trkpt lat="43.23797" lon="5.60581">
        <ele>419.8</ele>
        <time>2014-10-08T09:21:47Z</time>
      </trkpt>
      <trkpt lat="43.23799" lon="5.60586">
        <ele>419.7</ele>
        <time>2014-10-08T09:21:50Z</time>
      </trkpt>
      <trkpt lat="43.23801" lon="5.6059">
        <ele>419.6</ele>
        <time>2014-10-08T09:21:53Z</time>
      </trkpt>
      <trkpt lat="43.23803" lon="5.60594">
        <ele>419.6</ele>
        <time>2014-10-08T09:21:56Z</time>
      </trkpt>
      <trkpt lat="43.23804" lon="5.60599">
        <ele>419.5</ele>
        <time>2014-10-08T09:21:59Z</time>
      </trkpt>
      <trkpt lat="43.23805" lon="5.60604">
        <ele>419.6</ele>
        <time>2014-10-08T09:22:02Z</time>
      </trkpt>
      <trkpt lat="43.23806" lon="5.60609">
        <ele>419.1</ele>
        <time>2014-10-08T09:22:05Z</time>
      </trkpt>
      <trkpt lat="43.23808" lon="5.60613">
        <ele>418.5</ele>
        <time>2014-10-08T09:22:08Z</time>
      </trkpt>
      <trkpt lat="43.2381" lon="5.60617">
        <ele>418.2</ele>
        <time>2014-10-08T09:22:11Z</time>
      </trkpt>
      <trkpt lat="43.23812" lon="5.60622">
        <ele>418.2</ele>
        <time>2014-10-08T09:22:14Z</time>
      </trkpt>
      <trkpt lat="43.23815" lon="5.60626">
        <ele>418</ele>
        <time>2014-10-08T09:22:17Z</time>
      </trkpt>
      <trkpt lat="43.23818" lon="5.60629">
        <ele>418.5</ele>
        <time>2014-10-08T09:22:20Z</time>
      </trkpt>
      <trkpt lat="43.2382" lon="5.60633">
        <ele>417.8</ele>
        <time>2014-10-08T09:22:23Z</time>
      </trkpt>
      <trkpt lat="43.23823" lon="5.60636">
        <ele>417.2</ele>
        <time>2014-10-08T09:22:26Z</time>
      </trkpt>
      <trkpt lat="43.23826" lon="5.60639">
        <ele>416.8</ele>
        <time>2014-10-08T09:22:29Z</time>
      </trkpt>
      <trkpt lat="43.23827" lon="5.6064">
        <ele>416.5</ele>
        <time>2014-10-08T09:22:30Z</time>
      </trkpt>
      <trkpt lat="43.23831" lon="5.60645">
        <ele>416</ele>
        <time>2014-10-08T09:22:35Z</time>
      </trkpt>
      <trkpt lat="43.23834" lon="5.60647">
        <ele>415.5</ele>
        <time>2014-10-08T09:22:38Z</time>
      </trkpt>
      <trkpt lat="43.23837" lon="5.6065">
        <ele>415.2</ele>
        <time>2014-10-08T09:22:41Z</time>
      </trkpt>
      <trkpt lat="43.2384" lon="5.60654">
        <ele>415.6</ele>
        <time>2014-10-08T09:22:44Z</time>
      </trkpt>
      <trkpt lat="43.23842" lon="5.60658">
        <ele>415.7</ele>
        <time>2014-10-08T09:22:47Z</time>
      </trkpt>
      <trkpt lat="43.23845" lon="5.60662">
        <ele>416</ele>
        <time>2014-10-08T09:22:50Z</time>
      </trkpt>
      <trkpt lat="43.23847" lon="5.60666">
        <ele>416.3</ele>
        <time>2014-10-08T09:22:53Z</time>
      </trkpt>
      <trkpt lat="43.23849" lon="5.6067">
        <ele>416.6</ele>
        <time>2014-10-08T09:22:56Z</time>
      </trkpt>
      <trkpt lat="43.23851" lon="5.60673">
        <ele>416.7</ele>
        <time>2014-10-08T09:22:59Z</time>
      </trkpt>
      <trkpt lat="43.23853" lon="5.60679">
        <ele>417.2</ele>
        <time>2014-10-08T09:23:03Z</time>
      </trkpt>
      <trkpt lat="43.23855" lon="5.60684">
        <ele>417.1</ele>
        <time>2014-10-08T09:23:07Z</time>
      </trkpt>
      <trkpt lat="43.23857" lon="5.60688">
        <ele>416.7</ele>
        <time>2014-10-08T09:23:10Z</time>
      </trkpt>
      <trkpt lat="43.23858" lon="5.60692">
        <ele>417</ele>
        <time>2014-10-08T09:23:13Z</time>
      </trkpt>
      <trkpt lat="43.2386" lon="5.60696">
        <ele>417.2</ele>
        <time>2014-10-08T09:23:16Z</time>
      </trkpt>
      <trkpt lat="43.23861" lon="5.60701">
        <ele>417.6</ele>
        <time>2014-10-08T09:23:19Z</time>
      </trkpt>
      <trkpt lat="43.23863" lon="5.60705">
        <ele>417.7</ele>
        <time>2014-10-08T09:23:22Z</time>
      </trkpt>
      <trkpt lat="43.23865" lon="5.60709">
        <ele>417.3</ele>
        <time>2014-10-08T09:23:25Z</time>
      </trkpt>
      <trkpt lat="43.23867" lon="5.60713">
        <ele>417.7</ele>
        <time>2014-10-08T09:23:28Z</time>
      </trkpt>
      <trkpt lat="43.23869" lon="5.60718">
        <ele>418.2</ele>
        <time>2014-10-08T09:23:31Z</time>
      </trkpt>
      <trkpt lat="43.23869" lon="5.60719">
        <ele>418.1</ele>
        <time>2014-10-08T09:23:32Z</time>
      </trkpt>
      <trkpt lat="43.23873" lon="5.60726">
        <ele>419</ele>
        <time>2014-10-08T09:23:37Z</time>
      </trkpt>
      <trkpt lat="43.23874" lon="5.6073">
        <ele>418.6</ele>
        <time>2014-10-08T09:23:40Z</time>
      </trkpt>
      <trkpt lat="43.23877" lon="5.60734">
        <ele>418</ele>
        <time>2014-10-08T09:23:43Z</time>
      </trkpt>
      <trkpt lat="43.23879" lon="5.60738">
        <ele>417.2</ele>
        <time>2014-10-08T09:23:46Z</time>
      </trkpt>
      <trkpt lat="43.23882" lon="5.60743">
        <ele>416.7</ele>
        <time>2014-10-08T09:23:50Z</time>
      </trkpt>
      <trkpt lat="43.23884" lon="5.60745">
        <ele>416.7</ele>
        <time>2014-10-08T09:23:52Z</time>
      </trkpt>
      <trkpt lat="43.23888" lon="5.60748">
        <ele>416.7</ele>
        <time>2014-10-08T09:23:55Z</time>
      </trkpt>
      <trkpt lat="43.23891" lon="5.60749">
        <ele>416.8</ele>
        <time>2014-10-08T09:23:58Z</time>
      </trkpt>
      <trkpt lat="43.23894" lon="5.60751">
        <ele>416.7</ele>
        <time>2014-10-08T09:24:01Z</time>
      </trkpt>
      <trkpt lat="43.23897" lon="5.60753">
        <ele>417.7</ele>
        <time>2014-10-08T09:24:04Z</time>
      </trkpt>
      <trkpt lat="43.23902" lon="5.60755">
        <ele>417.2</ele>
        <time>2014-10-08T09:24:08Z</time>
      </trkpt>
      <trkpt lat="43.23906" lon="5.60756">
        <ele>417.5</ele>
        <time>2014-10-08T09:24:12Z</time>
      </trkpt>
      <trkpt lat="43.2391" lon="5.60758">
        <ele>417.5</ele>
        <time>2014-10-08T09:24:16Z</time>
      </trkpt>
      <trkpt lat="43.23914" lon="5.6076">
        <ele>417.7</ele>
        <time>2014-10-08T09:24:20Z</time>
      </trkpt>
      <trkpt lat="43.23918" lon="5.60761">
        <ele>419.2</ele>
        <time>2014-10-08T09:24:24Z</time>
      </trkpt>
      <trkpt lat="43.23922" lon="5.60762">
        <ele>419.1</ele>
        <time>2014-10-08T09:24:28Z</time>
      </trkpt>
      <trkpt lat="43.23926" lon="5.60763">
        <ele>418</ele>
        <time>2014-10-08T09:24:32Z</time>
      </trkpt>
      <trkpt lat="43.23927" lon="5.60763">
        <ele>418.2</ele>
        <time>2014-10-08T09:24:33Z</time>
      </trkpt>
      <trkpt lat="43.23934" lon="5.60766">
        <ele>420.6</ele>
        <time>2014-10-08T09:24:40Z</time>
      </trkpt>
      <trkpt lat="43.23937" lon="5.60766">
        <ele>419.2</ele>
        <time>2014-10-08T09:24:43Z</time>
      </trkpt>
      <trkpt lat="43.23941" lon="5.60767">
        <ele>418</ele>
        <time>2014-10-08T09:24:47Z</time>
      </trkpt>
      <trkpt lat="43.23945" lon="5.6077">
        <ele>419.2</ele>
        <time>2014-10-08T09:24:51Z</time>
      </trkpt>
      <trkpt lat="43.23949" lon="5.60772">
        <ele>420.7</ele>
        <time>2014-10-08T09:24:55Z</time>
      </trkpt>
      <trkpt lat="43.23952" lon="5.60774">
        <ele>421.8</ele>
        <time>2014-10-08T09:24:59Z</time>
      </trkpt>
      <trkpt lat="43.23956" lon="5.60776">
        <ele>423.6</ele>
        <time>2014-10-08T09:25:03Z</time>
      </trkpt>
      <trkpt lat="43.23959" lon="5.60779">
        <ele>426.1</ele>
        <time>2014-10-08T09:25:07Z</time>
      </trkpt>
      <trkpt lat="43.23963" lon="5.6078">
        <ele>425.7</ele>
        <time>2014-10-08T09:25:11Z</time>
      </trkpt>
      <trkpt lat="43.23966" lon="5.60782">
        <ele>426.2</ele>
        <time>2014-10-08T09:25:15Z</time>
      </trkpt>
      <trkpt lat="43.23969" lon="5.60784">
        <ele>425.5</ele>
        <time>2014-10-08T09:25:19Z</time>
      </trkpt>
      <trkpt lat="43.23973" lon="5.60787">
        <ele>424</ele>
        <time>2014-10-08T09:25:24Z</time>
      </trkpt>
      <trkpt lat="43.23976" lon="5.6079">
        <ele>423.8</ele>
        <time>2014-10-08T09:25:28Z</time>
      </trkpt>
      <trkpt lat="43.2398" lon="5.60792">
        <ele>424.2</ele>
        <time>2014-10-08T09:25:32Z</time>
      </trkpt>
      <trkpt lat="43.23983" lon="5.60796">
        <ele>424.6</ele>
        <time>2014-10-08T09:25:36Z</time>
      </trkpt>
      <trkpt lat="43.23983" lon="5.60797">
        <ele>424.7</ele>
        <time>2014-10-08T09:25:37Z</time>
      </trkpt>
      <trkpt lat="43.23989" lon="5.60804">
        <ele>425.2</ele>
        <time>2014-10-08T09:25:46Z</time>
      </trkpt>
      <trkpt lat="43.23992" lon="5.60807">
        <ele>426</ele>
        <time>2014-10-08T09:25:50Z</time>
      </trkpt>
      <trkpt lat="43.23995" lon="5.6081">
        <ele>426.3</ele>
        <time>2014-10-08T09:25:54Z</time>
      </trkpt>
      <trkpt lat="43.23998" lon="5.60813">
        <ele>426.1</ele>
        <time>2014-10-08T09:25:59Z</time>
      </trkpt>
      <trkpt lat="43.24002" lon="5.60817">
        <ele>426.7</ele>
        <time>2014-10-08T09:26:04Z</time>
      </trkpt>
      <trkpt lat="43.24005" lon="5.60821">
        <ele>427.5</ele>
        <time>2014-10-08T09:26:09Z</time>
      </trkpt>
      <trkpt lat="43.24007" lon="5.60825">
        <ele>428.8</ele>
        <time>2014-10-08T09:26:13Z</time>
      </trkpt>
      <trkpt lat="43.24009" lon="5.6083">
        <ele>430.2</ele>
        <time>2014-10-08T09:26:20Z</time>
      </trkpt>
      <trkpt lat="43.24011" lon="5.60825">
        <ele>433.1</ele>
        <time>2014-10-08T09:26:31Z</time>
      </trkpt>
      <trkpt lat="43.24009" lon="5.6082">
        <ele>432</ele>
        <time>2014-10-08T09:26:38Z</time>
      </trkpt>
      <trkpt lat="43.24009" lon="5.60819">
        <ele>431.7</ele>
        <time>2014-10-08T09:26:39Z</time>
      </trkpt>
      <trkpt lat="43.24008" lon="5.60808">
        <ele>432.6</ele>
        <time>2014-10-08T09:26:51Z</time>
      </trkpt>
      <trkpt lat="43.24009" lon="5.60803">
        <ele>432.7</ele>
        <time>2014-10-08T09:26:56Z</time>
      </trkpt>
      <trkpt lat="43.2401" lon="5.60798">
        <ele>432.6</ele>
        <time>2014-10-08T09:27:00Z</time>
      </trkpt>
      <trkpt lat="43.24011" lon="5.60792">
        <ele>432</ele>
        <time>2014-10-08T09:27:05Z</time>
      </trkpt>
      <trkpt lat="43.24014" lon="5.60787">
        <ele>429.6</ele>
        <time>2014-10-08T09:27:17Z</time>
      </trkpt>
      <trkpt lat="43.24018" lon="5.60789">
        <ele>429.6</ele>
        <time>2014-10-08T09:27:25Z</time>
      </trkpt>
      <trkpt lat="43.24021" lon="5.60784">
        <ele>427.6</ele>
        <time>2014-10-08T09:27:49Z</time>
      </trkpt>
      <trkpt lat="43.24021" lon="5.60784">
        <ele>427.1</ele>
        <time>2014-10-08T09:27:50Z</time>
      </trkpt>
      <trkpt lat="43.24016" lon="5.60778">
        <ele>428.2</ele>
        <time>2014-10-08T09:28:22Z</time>
      </trkpt>
      <trkpt lat="43.24014" lon="5.60773">
        <ele>426</ele>
        <time>2014-10-08T09:28:30Z</time>
      </trkpt>
      <trkpt lat="43.24011" lon="5.60769">
        <ele>425.3</ele>
        <time>2014-10-08T09:28:39Z</time>
      </trkpt>
      <trkpt lat="43.24009" lon="5.60765">
        <ele>424.6</ele>
        <time>2014-10-08T09:28:47Z</time>
      </trkpt>
      <trkpt lat="43.24006" lon="5.60761">
        <ele>425.5</ele>
        <time>2014-10-08T09:28:52Z</time>
      </trkpt>
      <trkpt lat="43.24005" lon="5.60761">
        <ele>425.6</ele>
        <time>2014-10-08T09:28:53Z</time>
      </trkpt>
    </trkseg>
  </trk>
</gpx>